Time;durP1;ratioP1;P1;durP2;ratioP2;P2;SDS_P1;SDS_P2;PMS_P1;PMS_P2;Temp;Humidity;BMP_temperature;BMP_pressure;BME280_temperature;BME280_humidity;BME280_pressure;Samples;Min_cycle;Max_cycle;Signal;HPM_P1;HPM_P2
2022/04/13 00:02:14;;;;;;;7.07;2.05;;;15.40;71.80;;;;;;4881074;29;20108;-88
2022/04/13 00:04:41;;;;;;;5.63;1.73;;;15.40;71.80;;;;;;4883677;29;20096;-90
2022/04/13 00:07:08;;;;;;;6.32;1.80;;;15.40;71.80;;;;;;4885463;29;20168;-89
2022/04/13 00:09:35;;;;;;;5.75;1.90;;;15.30;71.80;;;;;;4885878;29;20053;-88
2022/04/13 00:12:03;;;;;;;9.63;2.13;;;15.30;71.80;;;;;;4888414;29;20124;-89
2022/04/13 00:14:31;;;;;;;6.72;1.83;;;15.30;71.90;;;;;;4885135;29;20048;-89
2022/04/13 00:16:58;;;;;;;8.40;2.50;;;15.30;71.90;;;;;;4884787;29;20057;-89
2022/04/13 00:19:26;;;;;;;7.22;2.13;;;15.30;71.90;;;;;;4899517;29;20068;-89
2022/04/13 00:21:53;;;;;;;5.43;1.77;;;15.20;71.90;;;;;;4892618;29;20055;-87
2022/04/13 00:24:20;;;;;;;6.75;1.83;;;15.20;72.00;;;;;;4888804;29;20048;-89
2022/04/13 00:26:47;;;;;;;6.30;1.88;;;15.20;72.00;;;;;;4886657;29;20171;-90
2022/04/13 00:29:14;;;;;;;5.28;1.67;;;15.20;72.00;;;;;;4884193;29;20053;-89
2022/04/13 00:31:41;;;;;;;6.30;1.70;;;15.20;72.10;;;;;;4886773;29;20061;-89
2022/04/13 00:34:08;;;;;;;6.75;2.20;;;15.20;72.10;;;;;;4888546;29;20049;-90
2022/04/13 00:36:35;;;;;;;4.78;1.77;;;15.10;72.10;;;;;;4888515;29;20049;-89
2022/04/13 00:39:02;;;;;;;7.78;2.13;;;15.10;72.10;;;;;;4888255;29;20104;-89
2022/04/13 00:41:29;;;;;;;5.38;1.85;;;15.10;72.10;;;;;;4884148;29;20108;-89
2022/04/13 00:44:07;;;;;;;6.63;2.00;;;15.00;72.20;;;;;;4884723;29;20128;-90
2022/04/13 00:46:34;;;;;;;5.50;2.13;;;15.00;72.20;;;;;;4899000;29;20060;-89
2022/04/13 00:49:03;;;;;;;7.07;2.00;;;15.00;72.20;;;;;;4891020;29;20049;-89
2022/04/13 00:51:31;;;;;;;8.77;1.60;;;15.00;72.20;;;;;;4888245;29;20101;-89
2022/04/13 00:54:00;;;;;;;4.95;1.77;;;14.90;72.30;;;;;;4887852;29;20052;-88
2022/04/13 00:56:29;;;;;;;6.35;1.80;;;14.90;72.30;;;;;;4883514;29;20402;-90
2022/04/13 00:59:04;;;;;;;12.15;1.90;;;14.90;72.30;;;;;;4895647;29;20063;-89
2022/04/13 01:01:31;;;;;;;6.07;2.00;;;14.90;72.40;;;;;;4898386;29;20077;-89
2022/04/13 01:04:00;;;;;;;4.78;1.80;;;14.80;72.40;;;;;;4891171;29;20528;-89
2022/04/13 01:06:27;;;;;;;5.18;1.90;;;14.80;72.40;;;;;;4887911;29;20112;-90
2022/04/13 01:08:55;;;;;;;7.50;1.95;;;14.70;72.50;;;;;;4886903;29;20122;-89
2022/04/13 01:11:22;;;;;;;7.80;1.90;;;14.70;72.50;;;;;;4883326;29;20100;-89
2022/04/13 01:13:53;;;;;;;6.97;1.90;;;14.70;72.60;;;;;;4884725;29;20056;-89
2022/04/13 01:16:21;;;;;;;5.55;1.80;;;14.60;72.60;;;;;;4887782;29;20089;-88
2022/04/13 01:18:49;;;;;;;5.63;2.00;;;14.60;72.70;;;;;;4887449;29;20052;-89
2022/04/13 01:21:19;;;;;;;5.82;1.77;;;14.60;72.70;;;;;;4887508;29;20498;-89
2022/04/13 01:23:46;;;;;;;4.80;1.70;;;14.50;72.70;;;;;;4885516;29;20123;-89
2022/04/13 01:26:13;;;;;;;4.38;1.77;;;14.50;72.70;;;;;;4883145;29;20125;-89
2022/04/13 01:28:40;;;;;;;6.90;1.90;;;14.50;72.80;;;;;;4885914;29;20057;-89
2022/04/13 01:31:07;;;;;;;5.80;2.17;;;14.40;72.80;;;;;;4886333;29;20049;-89
2022/04/13 01:33:35;;;;;;;8.18;1.98;;;14.40;72.80;;;;;;4887403;29;20101;-89
2022/04/13 01:36:02;;;;;;;3.83;1.80;;;14.40;72.80;;;;;;4887324;29;20585;-89
2022/04/13 01:38:30;;;;;;;4.35;1.60;;;14.30;72.80;;;;;;4883091;29;20045;-89
2022/04/13 01:40:57;;;;;;;5.32;1.70;;;14.30;72.80;;;;;;4894836;29;20056;-89
2022/04/13 01:43:25;;;;;;;5.60;1.60;;;14.30;72.80;;;;;;4897961;29;20085;-90
2022/04/13 01:45:53;;;;;;;6.05;1.92;;;14.20;72.80;;;;;;4891281;29;20109;-88
2022/04/13 01:48:20;;;;;;;4.95;1.85;;;14.20;72.80;;;;;;4887208;29;20044;-89
2022/04/13 01:50:47;;;;;;;5.15;1.75;;;14.10;72.80;;;;;;4884275;29;20056;-90
2022/04/13 01:53:14;;;;;;;3.47;1.73;;;14.10;72.90;;;;;;4882229;29;20053;-88
2022/04/13 01:55:41;;;;;;;6.50;1.90;;;14.00;72.90;;;;;;4885374;29;20089;-88
2022/04/13 01:58:08;;;;;;;4.82;1.73;;;14.00;72.90;;;;;;4886873;29;20101;-89
2022/04/13 02:00:36;;;;;;;6.00;1.90;;;13.90;72.90;;;;;;4886938;29;20048;-88
2022/04/13 02:03:03;;;;;;;7.15;1.67;;;13.90;73.00;;;;;;4887051;29;20044;-89
2022/04/13 02:05:31;;;;;;;5.22;1.88;;;13.90;73.00;;;;;;4883335;29;20076;-89
2022/04/13 02:07:58;;;;;;;6.60;2.03;;;13.90;73.00;;;;;;4882508;29;20507;-88
2022/04/13 02:10:25;;;;;;;5.13;2.00;;;13.80;73.00;;;;;;4897499;29;20403;-89
2022/04/13 02:12:52;;;;;;;4.65;1.70;;;13.70;73.10;;;;;;4890434;29;20673;-88
2022/04/13 02:15:19;;;;;;;6.57;2.03;;;13.70;73.10;;;;;;4886687;29;20051;-89
2022/04/13 02:17:46;;;;;;;4.80;1.90;;;13.70;73.10;;;;;;4883755;29;20056;-89
2022/04/13 02:20:14;;;;;;;6.70;2.10;;;13.60;73.10;;;;;;4882298;29;20045;-88
2022/04/13 02:22:45;;;;;;;5.28;1.77;;;13.60;73.10;;;;;;4884653;29;20057;-89
2022/04/13 02:25:14;;;;;;;5.25;1.83;;;13.50;73.10;;;;;;4886601;29;20052;-88
2022/04/13 02:27:42;;;;;;;4.13;1.95;;;13.50;73.10;;;;;;4886418;29;20053;-89
2022/04/13 02:30:09;;;;;;;4.30;1.73;;;13.40;73.10;;;;;;4886553;29;20421;-89
2022/04/13 02:32:40;;;;;;;5.07;1.80;;;13.40;73.10;;;;;;4881742;29;20052;-89
2022/04/13 02:35:07;;;;;;;8.43;2.13;;;13.40;73.20;;;;;;4882078;29;20064;-88
2022/04/13 02:37:34;;;;;;;7.13;2.20;;;13.30;73.10;;;;;;4885145;29;20510;-89
2022/04/13 02:40:01;;;;;;;5.18;1.90;;;13.30;73.20;;;;;;4885202;29;20089;-89
2022/04/13 02:42:32;;;;;;;8.80;2.20;;;13.30;73.20;;;;;;4886267;29;20093;-89
2022/04/13 02:45:00;;;;;;;6.35;1.83;;;13.20;73.20;;;;;;4886370;29;20060;-89
2022/04/13 02:47:27;;;;;;;6.72;1.90;;;13.20;73.30;;;;;;4882190;29;20044;-87
2022/04/13 02:49:55;;;;;;;5.15;1.90;;;13.10;73.30;;;;;;4893418;29;20060;-88
2022/04/13 02:52:23;;;;;;;4.95;2.22;;;13.10;73.40;;;;;;4886085;29;20109;-89
2022/04/13 02:54:50;;;;;;;4.90;1.98;;;13.10;73.40;;;;;;4886115;29;20057;-89
2022/04/13 02:57:17;;;;;;;5.32;1.90;;;13.00;73.50;;;;;;4886135;29;20108;-89
2022/04/13 02:59:46;;;;;;;7.82;2.30;;;13.00;73.60;;;;;;4882929;29;20049;-88
2022/04/13 03:02:16;;;;;;;7.60;2.10;;;12.90;73.70;;;;;;4880745;29;20053;-88
2022/04/13 03:04:47;;;;;;;5.63;2.10;;;12.90;73.70;;;;;;4882619;29;20053;-89
2022/04/13 03:07:16;;;;;;;6.25;2.17;;;12.90;73.80;;;;;;4885671;29;20113;-90
2022/04/13 03:09:44;;;;;;;9.00;2.65;;;12.90;73.90;;;;;;4886115;29;20053;-87
2022/04/13 03:12:12;;;;;;;10.35;2.28;;;12.90;73.90;;;;;;4885894;29;20059;-89
2022/04/13 03:14:43;;;;;;;5.55;2.08;;;12.80;74.00;;;;;;4882928;29;20478;-88
2022/04/13 03:17:10;;;;;;;7.20;2.28;;;12.80;74.00;;;;;;4881818;29;20053;-89
2022/04/13 03:19:37;;;;;;;8.23;2.30;;;12.80;74.10;;;;;;4884278;29;20116;-89
2022/04/13 03:22:04;;;;;;;6.15;2.20;;;12.80;74.10;;;;;;4886001;29;20049;-89
2022/04/13 03:24:30;;;;;;;6.63;2.38;;;12.70;74.10;;;;;;4886035;29;20182;-89
2022/04/13 03:26:57;;;;;;;5.85;2.47;;;12.70;74.20;;;;;;4885588;29;20048;-88
2022/04/13 03:29:24;;;;;;;7.28;2.22;;;12.60;74.20;;;;;;4881668;29;20056;-88
2022/04/13 03:31:51;;;;;;;9.18;2.63;;;12.60;74.20;;;;;;4882885;29;20049;-89
2022/04/13 03:34:21;;;;;;;7.38;2.13;;;12.60;74.20;;;;;;4885502;29;20067;-90
2022/04/13 03:36:49;;;;;;;7.22;2.30;;;12.60;74.30;;;;;;4885859;29;20049;-89
2022/04/13 03:39:16;;;;;;;5.72;2.10;;;12.60;74.30;;;;;;4885762;29;20131;-88
2022/04/13 03:41:43;;;;;;;5.82;2.20;;;12.60;74.30;;;;;;4882501;29;20104;-89
2022/04/13 03:44:10;;;;;;;6.05;2.30;;;12.50;74.30;;;;;;4881449;29;20049;-89
2022/04/13 03:46:38;;;;;;;6.28;2.15;;;12.50;74.40;;;;;;4887882;29;20049;-88
2022/04/13 03:49:06;;;;;;;5.10;2.10;;;12.50;74.30;;;;;;4888989;29;20545;-88
2022/04/13 03:51:34;;;;;;;6.78;2.35;;;12.50;74.40;;;;;;4889332;29;20049;-89
2022/04/13 03:54:01;;;;;;;5.78;2.30;;;12.50;74.40;;;;;;4889192;29;20112;-89
2022/04/13 03:56:29;;;;;;;6.05;2.15;;;12.50;74.40;;;;;;4885089;29;20048;-89
2022/04/13 03:58:57;;;;;;;7.00;2.47;;;12.40;74.40;;;;;;4896650;29;20060;-89
2022/04/13 04:01:25;;;;;;;7.40;2.30;;;12.40;74.40;;;;;;4899795;29;20049;-89
2022/04/13 04:03:53;;;;;;;6.65;2.70;;;12.40;74.40;;;;;;4892720;29;20109;-88
2022/04/13 04:06:21;;;;;;;5.72;2.55;;;12.40;74.50;;;;;;4889097;29;20064;-89
2022/04/13 04:08:47;;;;;;;6.35;2.65;;;12.40;74.50;;;;;;4887262;29;20112;-88
2022/04/13 04:11:14;;;;;;;5.05;2.42;;;12.40;74.50;;;;;;4884706;29;20045;-87
2022/04/13 04:13:41;;;;;;;7.95;2.65;;;12.30;74.50;;;;;;4886914;29;20121;-88
2022/04/13 04:16:09;;;;;;;5.07;2.30;;;12.40;74.50;;;;;;4888876;29;20053;-88
2022/04/13 04:18:35;;;;;;;7.10;2.85;;;12.30;74.50;;;;;;4888520;29;20048;-88
2022/04/13 04:21:02;;;;;;;4.35;2.30;;;12.30;74.60;;;;;;4888873;29;20044;-88
2022/04/13 04:23:29;;;;;;;6.57;2.58;;;12.30;74.60;;;;;;4884765;29;20104;-89
2022/04/13 04:25:56;;;;;;;6.53;2.72;;;12.30;74.60;;;;;;4885002;29;20510;-88
2022/04/13 04:28:23;;;;;;;5.90;2.70;;;12.20;74.70;;;;;;4888680;29;20057;-88
2022/04/13 04:30:50;;;;;;;7.80;2.78;;;12.20;74.70;;;;;;4888589;29;20117;-89
2022/04/13 04:33:17;;;;;;;6.53;2.40;;;12.20;74.80;;;;;;4888121;29;20079;-88
2022/04/13 04:35:47;;;;;;;7.95;2.83;;;12.20;74.90;;;;;;4886346;29;20521;-89
2022/04/13 04:38:14;;;;;;;9.85;2.80;;;12.20;74.90;;;;;;4884166;29;20430;-88
2022/04/13 04:40:41;;;;;;;5.07;2.40;;;12.20;75.00;;;;;;4886888;29;20072;-88
2022/04/13 04:43:08;;;;;;;6.07;2.67;;;12.20;75.10;;;;;;4888442;29;20574;-88
2022/04/13 04:45:35;;;;;;;5.70;2.80;;;12.20;75.10;;;;;;4888447;29;20053;-89
2022/04/13 04:48:06;;;;;;;5.40;2.60;;;12.10;75.10;;;;;;4887953;29;20048;-89
2022/04/13 04:50:34;;;;;;;5.38;3.20;;;12.10;75.20;;;;;;4884775;29;20084;-87
2022/04/13 04:53:01;;;;;;;7.53;3.00;;;12.20;75.20;;;;;;4884042;29;20064;-88
2022/04/13 04:55:29;;;;;;;7.10;2.70;;;12.10;75.20;;;;;;4887189;29;20118;-89
2022/04/13 04:57:56;;;;;;;6.63;2.58;;;12.20;75.30;;;;;;4888078;29;20587;-88
2022/04/13 05:00:23;;;;;;;6.70;2.70;;;12.10;75.30;;;;;;4888103;29;20097;-89
2022/04/13 05:02:51;;;;;;;5.38;2.90;;;12.20;75.30;;;;;;4886536;29;20045;-88
2022/04/13 05:05:20;;;;;;;8.20;3.28;;;12.10;75.30;;;;;;4883503;29;20057;-88
2022/04/13 05:07:47;;;;;;;9.05;3.00;;;12.20;75.30;;;;;;4885448;29;20060;-89
2022/04/13 05:10:15;;;;;;;6.35;2.75;;;12.10;75.30;;;;;;4887874;29;20055;-89
2022/04/13 05:12:50;;;;;;;8.27;2.83;;;12.10;75.30;;;;;;4887563;29;20117;-89
2022/04/13 05:15:17;;;;;;;9.05;3.03;;;12.10;75.40;;;;;;4887712;29;20052;-88
2022/04/13 05:17:44;;;;;;;6.38;3.22;;;12.10;75.40;;;;;;4885213;29;20060;-88
2022/04/13 05:20:11;;;;;;;5.22;2.92;;;12.10;75.50;;;;;;4883453;29;20057;-89
2022/04/13 05:22:38;;;;;;;5.80;3.10;;;12.10;75.50;;;;;;4892924;29;20056;-89
2022/04/13 05:25:13;;;;;;;7.50;2.88;;;12.10;75.50;;;;;;4889932;29;20052;-88
2022/04/13 05:27:41;;;;;;;8.82;3.50;;;12.10;75.60;;;;;;4892656;29;20049;-89
2022/04/13 05:30:10;;;;;;;9.70;3.20;;;12.10;75.70;;;;;;4897093;29;20052;-88
2022/04/13 05:32:57;;;;;;;6.55;3.28;;;12.10;75.70;;;;;;4884478;29;20514;-89
2022/04/13 05:35:26;;;;;;;9.68;3.03;;;12.10;75.80;;;;;;4883166;29;20106;-88
2022/04/13 05:37:56;;;;;;;6.82;3.33;;;12.10;75.80;;;;;;4884202;29;20101;-88
2022/04/13 05:40:24;;;;;;;7.13;3.10;;;12.10;75.80;;;;;;4887440;29;20575;-89
2022/04/13 05:42:53;;;;;;;13.02;3.78;;;12.10;75.80;;;;;;4887234;29;20434;-88
2022/04/13 05:45:20;;;;;;;6.97;3.20;;;12.10;75.90;;;;;;4886910;29;20538;-88
2022/04/13 05:47:47;;;;;;;7.30;3.40;;;12.10;75.90;;;;;;4885518;29;20060;-89
2022/04/13 05:50:15;;;;;;;8.52;3.38;;;12.20;76.00;;;;;;4897821;29;20078;-88
2022/04/13 05:52:44;;;;;;;8.77;3.45;;;12.10;76.00;;;;;;4885368;29;20048;-89
2022/04/13 05:55:11;;;;;;;7.22;3.75;;;12.10;76.10;;;;;;4887045;29;20057;-88
2022/04/13 05:57:38;;;;;;;7.13;3.20;;;12.20;76.10;;;;;;4887009;29;20045;-88
2022/04/13 06:00:07;;;;;;;10.63;3.92;;;12.20;76.20;;;;;;4886866;29;20071;-87
2022/04/13 06:02:38;;;;;;;8.60;3.60;;;12.10;76.20;;;;;;4882389;29;20056;-87
2022/04/13 06:05:06;;;;;;;5.57;3.50;;;12.20;76.30;;;;;;4882618;29;20417;-88
2022/04/13 06:07:33;;;;;;;7.70;3.50;;;12.20;76.30;;;;;;4885366;29;20057;-88
2022/04/13 06:10:02;;;;;;;10.00;3.58;;;12.20;76.30;;;;;;4886821;29;20057;-87
2022/04/13 06:12:29;;;;;;;10.35;3.63;;;12.20;76.40;;;;;;4886711;29;20064;-88
2022/04/13 06:15:10;;;;;;;6.63;3.25;;;12.20;76.40;;;;;;4885898;29;20057;-88
2022/04/13 06:17:37;;;;;;;9.18;3.35;;;12.20;76.40;;;;;;4883790;29;20052;-88
2022/04/13 06:20:06;;;;;;;10.77;4.28;;;12.20;76.40;;;;;;4897527;29;20056;-89
2022/04/13 06:22:39;;;;;;;7.03;3.75;;;12.30;76.50;;;;;;4897116;29;20060;-87
2022/04/13 06:25:07;;;;;;;10.90;4.20;;;12.30;76.50;;;;;;4888881;29;20057;-89
2022/04/13 06:27:34;;;;;;;10.82;4.72;;;12.30;76.50;;;;;;4886552;29;20041;-88
2022/04/13 06:30:02;;;;;;;7.68;4.70;;;12.30;76.50;;;;;;4886075;29;20506;-87
2022/04/13 06:32:35;;;;;;;8.55;4.93;;;12.30;76.50;;;;;;4882484;29;20100;-89
2022/04/13 06:35:03;;;;;;;9.95;5.30;;;12.30;76.60;;;;;;4892992;29;20060;-88
2022/04/13 06:37:36;;;;;;;9.32;5.60;;;12.30;76.70;;;;;;4896651;29;20055;-88
2022/04/13 06:40:04;;;;;;;10.95;5.57;;;12.40;76.80;;;;;;4892384;29;20053;-88
2022/04/13 06:42:36;;;;;;;8.60;5.68;;;12.40;76.80;;;;;;4893846;29;20052;-87
2022/04/13 06:45:10;;;;;;;9.95;6.35;;;12.40;76.90;;;;;;4892896;29;20135;-88
2022/04/13 06:47:38;;;;;;;12.32;7.55;;;12.40;77.00;;;;;;4893142;29;20053;-88
2022/04/13 06:50:06;;;;;;;12.07;6.47;;;12.40;77.10;;;;;;4895509;29;20479;-87
2022/04/13 06:52:35;;;;;;;10.90;7.90;;;12.40;77.10;;;;;;4893750;29;20108;-89
2022/04/13 06:55:03;;;;;;;11.20;6.97;;;12.50;77.20;;;;;;4892977;29;20132;-88
2022/04/13 06:57:35;;;;;;;13.10;7.65;;;12.50;77.20;;;;;;4897853;29;20752;-88
2022/04/13 07:00:04;;;;;;;15.57;9.13;;;12.50;77.30;;;;;;4892393;29;20498;-89
2022/04/13 07:02:31;;;;;;;12.90;9.18;;;12.50;77.30;;;;;;4893150;29;20097;-88
2022/04/13 07:04:58;;;;;;;14.40;9.32;;;12.50;77.40;;;;;;4897046;29;20593;-88
2022/04/13 07:07:25;;;;;;;17.50;10.15;;;12.60;77.40;;;;;;4894513;29;20049;-87
2022/04/13 07:09:52;;;;;;;19.05;11.40;;;12.60;77.50;;;;;;4892099;29;20565;-88
2022/04/13 07:12:19;;;;;;;16.65;10.90;;;12.70;77.50;;;;;;4892360;29;20463;-88
2022/04/13 07:14:46;;;;;;;13.85;9.65;;;12.70;77.60;;;;;;4892602;29;20056;-88
2022/04/13 07:17:13;;;;;;;17.38;11.20;;;12.70;77.60;;;;;;4895105;29;20052;-87
2022/04/13 07:19:39;;;;;;;17.30;11.25;;;12.70;77.70;;;;;;4896813;29;20104;-87
2022/04/13 07:22:06;;;;;;;18.02;12.63;;;12.80;77.70;;;;;;4897682;29;20478;-88
2022/04/13 07:24:39;;;;;;;23.38;13.55;;;12.80;77.80;;;;;;4896649;29;20076;-88
2022/04/13 07:27:06;;;;;;;16.25;11.38;;;12.80;77.80;;;;;;4896557;29;20108;-88
2022/04/13 07:29:33;;;;;;;14.55;11.18;;;12.80;77.90;;;;;;4896159;29;20108;-88
2022/04/13 07:32:00;;;;;;;20.73;14.13;;;12.80;77.90;;;;;;4899847;29;20056;-87
2022/04/13 07:34:27;;;;;;;21.10;13.80;;;12.80;78.00;;;;;;4897440;29;20052;-88
2022/04/13 07:36:54;;;;;;;18.77;13.43;;;12.90;78.10;;;;;;4896058;29;20053;-87
2022/04/13 07:39:21;;;;;;;18.17;12.90;;;12.90;78.10;;;;;;4896076;29;20505;-88
2022/04/13 07:41:48;;;;;;;21.98;14.10;;;12.90;78.20;;;;;;4896142;29;20116;-88
2022/04/13 07:44:15;;;;;;;19.10;13.52;;;12.90;78.30;;;;;;4897725;29;20112;-88
2022/04/13 07:46:42;;;;;;;17.75;13.43;;;12.90;78.30;;;;;;4898512;29;20101;-88
2022/04/13 07:49:09;;;;;;;19.90;13.77;;;12.90;78.40;;;;;;4896065;29;20052;-87
2022/04/13 07:51:39;;;;;;;21.95;13.55;;;13.00;78.40;;;;;;4895717;29;20088;-88
2022/04/13 07:54:06;;;;;;;19.63;13.07;;;13.00;78.40;;;;;;4894957;29;20052;-88
2022/04/13 07:56:53;;;;;;;26.00;14.45;;;13.00;78.50;;;;;;4895927;29;20588;-88
2022/04/13 07:59:20;;;;;;;19.42;14.20;;;13.00;78.50;;;;;;4897043;29;20056;-88
2022/04/13 08:01:47;;;;;;;22.17;14.80;;;13.00;78.50;;;;;;4898964;29;20053;-88
2022/04/13 08:04:14;;;;;;;19.27;13.48;;;13.10;78.50;;;;;;4895893;29;20532;-88
2022/04/13 08:06:54;;;;;;;20.83;13.75;;;13.10;78.60;;;;;;4895842;29;20049;-87
2022/04/13 08:09:21;;;;;;;19.85;13.82;;;13.10;78.70;;;;;;4894277;29;20049;-88
2022/04/13 08:11:52;;;;;;;21.92;13.30;;;13.10;78.60;;;;;;4910154;29;20049;-87
2022/04/13 08:14:21;;;;;;;23.05;14.23;;;13.20;78.70;;;;;;4896880;29;20108;-87
2022/04/13 08:16:48;;;;;;;19.67;14.45;;;13.10;78.70;;;;;;4898499;29;20053;-87
2022/04/13 08:19:15;;;;;;;20.85;14.07;;;13.20;78.70;;;;;;4895558;29;20087;-87
2022/04/13 08:21:43;;;;;;;20.75;14.13;;;13.20;78.70;;;;;;4895776;29;20056;-88
2022/04/13 08:24:10;;;;;;;19.77;14.43;;;13.20;78.70;;;;;;4895300;29;20048;-88
2022/04/13 08:26:37;;;;;;;26.50;14.20;;;13.20;78.70;;;;;;4895453;29;20053;-87
2022/04/13 08:29:04;;;;;;;19.10;13.30;;;13.20;78.80;;;;;;4898403;29;20577;-88
2022/04/13 08:31:31;;;;;;;18.48;14.52;;;13.30;78.80;;;;;;4896338;29;20048;-88
2022/04/13 08:33:57;;;;;;;22.73;14.73;;;13.30;78.80;;;;;;4895223;29;20056;-87
2022/04/13 08:36:25;;;;;;;21.05;14.35;;;13.20;78.80;;;;;;4895519;29;20048;-88
2022/04/13 08:38:52;;;;;;;20.23;14.02;;;13.20;78.80;;;;;;4895171;29;20570;-88
2022/04/13 08:41:54;;;;;;;21.70;14.27;;;13.30;78.80;;;;;;4896837;29;20066;-87
2022/04/13 08:44:30;;;;;;;18.90;13.90;;;13.30;78.90;;;;;;4889285;29;20060;-87
2022/04/13 08:47:05;;;;;;;19.08;13.73;;;13.30;78.90;;;;;;4895437;29;20179;-87
2022/04/13 08:49:34;;;;;;;20.25;15.10;;;13.30;78.90;;;;;;4895905;29;20052;-88
2022/04/13 08:52:04;;;;;;;18.58;14.32;;;13.30;78.90;;;;;;4895006;29;20135;-88
2022/04/13 08:54:36;;;;;;;19.52;13.52;;;13.30;78.90;;;;;;4894741;29;20085;-88
2022/04/13 08:57:07;;;;;;;18.38;13.63;;;13.30;79.00;;;;;;4893924;29;20112;-88
2022/04/13 08:59:56;;;;;;;21.48;14.57;;;13.30;79.00;;;;;;4895154;29;20045;-87
2022/04/13 09:02:53;;;;;;;22.10;14.98;;;13.30;79.00;;;;;;4895870;29;20060;-88
2022/04/13 09:05:29;;;;;;;21.35;14.60;;;13.30;79.10;;;;;;4895076;29;20494;-89
2022/04/13 09:08:25;;;;;;;19.80;14.35;;;13.40;79.10;;;;;;4894591;29;20105;-88
2022/04/13 09:10:54;;;;;;;20.20;15.10;;;13.40;79.10;;;;;;4886408;29;20048;-88
2022/04/13 09:13:24;;;;;;;19.30;15.57;;;13.40;79.20;;;;;;4894453;29;20056;-88
2022/04/13 09:15:53;;;;;;;20.38;14.82;;;13.40;79.20;;;;;;4894657;29;20482;-89
2022/04/13 09:18:20;;;;;;;18.77;14.48;;;13.40;79.30;;;;;;4894292;29;20127;-88
2022/04/13 09:20:47;;;;;;;23.80;14.70;;;13.40;79.30;;;;;;4896337;29;20108;-88
2022/04/13 09:23:16;;;;;;;20.40;15.90;;;13.50;79.30;;;;;;4896848;29;20498;-88
2022/04/13 09:25:43;;;;;;;20.50;13.82;;;13.50;79.40;;;;;;4896806;29;20455;-88
2022/04/13 09:28:10;;;;;;;17.35;14.60;;;13.50;79.40;;;;;;4894300;29;20048;-87
2022/04/13 09:30:38;;;;;;;20.88;14.55;;;13.60;79.40;;;;;;4894501;29;20052;-88
2022/04/13 09:33:05;;;;;;;19.63;13.75;;;13.60;79.40;;;;;;4894387;29;20045;-88
2022/04/13 09:35:34;;;;;;;17.45;13.10;;;13.60;79.40;;;;;;4895970;29;20519;-88
2022/04/13 09:38:06;;;;;;;17.63;12.15;;;13.60;79.40;;;;;;4897343;29;20104;-88
2022/04/13 09:40:37;;;;;;;15.57;11.85;;;13.70;79.40;;;;;;4895025;29;20582;-88
2022/04/13 09:43:23;;;;;;;18.02;12.10;;;13.80;79.40;;;;;;4894822;29;20045;-88
2022/04/13 09:45:52;;;;;;;16.80;12.07;;;13.80;79.40;;;;;;4895637;29;20115;-89
2022/04/13 09:48:20;;;;;;;22.23;12.52;;;13.90;79.30;;;;;;4895427;29;20045;-88
2022/04/13 09:50:52;;;;;;;17.05;12.27;;;13.90;79.30;;;;;;4895831;29;20052;-89
2022/04/13 09:53:20;;;;;;;16.35;11.48;;;13.90;79.30;;;;;;4895658;29;20053;-88
2022/04/13 09:55:52;;;;;;;13.75;10.65;;;14.10;79.30;;;;;;4896889;29;20068;-87
2022/04/13 09:58:22;;;;;;;16.90;11.57;;;14.10;79.20;;;;;;4894208;29;20053;-88
2022/04/13 10:00:52;;;;;;;16.85;10.65;;;14.20;79.10;;;;;;4894024;29;20052;-88
2022/04/13 10:03:23;;;;;;;16.02;11.50;;;14.30;79.00;;;;;;4893808;29;20045;-88
2022/04/13 10:05:52;;;;;;;13.45;9.98;;;14.40;78.90;;;;;;4893743;29;20060;-88
2022/04/13 10:08:22;;;;;;;12.63;9.82;;;14.40;78.80;;;;;;4895173;29;20107;-88
2022/04/13 10:10:59;;;;;;;14.90;10.15;;;14.50;78.60;;;;;;4896956;29;20067;-88
2022/04/13 10:13:47;;;;;;;12.98;9.95;;;14.60;78.40;;;;;;4895788;29;20056;-88
2022/04/13 10:16:16;;;;;;;12.70;9.65;;;14.70;78.20;;;;;;4893774;29;20112;-88
2022/04/13 10:19:00;;;;;;;16.23;9.23;;;14.80;78.10;;;;;;4893553;29;20083;-89
2022/04/13 10:21:46;;;;;;;13.93;8.73;;;14.90;78.00;;;;;;4893518;29;20135;-90
2022/04/13 10:24:28;;;;;;;12.23;8.45;;;14.90;77.80;;;;;;4893605;29;20399;-90
2022/04/13 10:27:11;;;;;;;16.40;9.30;;;15.00;77.60;;;;;;4893650;29;20525;-90
2022/04/13 10:29:40;;;;;;;12.05;8.45;;;15.10;77.40;;;;;;4880090;29;20056;-89
2022/04/13 10:32:08;;;;;;;11.55;7.60;;;15.20;77.30;;;;;;4895728;29;20104;-90
2022/04/13 10:34:49;;;;;;;10.68;7.85;;;15.30;77.20;;;;;;4894962;29;20175;-90
2022/04/13 10:37:19;;;;;;;11.18;7.78;;;15.40;76.90;;;;;;4893628;29;20112;-89
2022/04/13 10:39:47;;;;;;;13.18;7.93;;;15.40;76.60;;;;;;4893450;29;20076;-89
2022/04/13 10:42:16;;;;;;;9.63;6.85;;;15.50;76.40;;;;;;4893253;29;20059;-88
2022/04/13 10:44:48;;;;;;;9.93;6.82;;;15.60;76.10;;;;;;4893507;29;20052;-89
2022/04/13 10:47:18;;;;;;;9.80;7.25;;;15.60;75.90;;;;;;4895403;29;20125;-89
2022/04/13 10:50:00;;;;;;;8.90;6.38;;;15.70;75.60;;;;;;4895498;29;20104;-89
2022/04/13 10:52:35;;;;;;;11.10;7.13;;;15.80;75.30;;;;;;4895004;29;20139;-89
2022/04/13 10:55:12;;;;;;;9.90;6.28;;;15.80;75.20;;;;;;4892821;29;20466;-90
2022/04/13 10:58:13;;;;;;;8.63;6.10;;;15.80;75.00;;;;;;4893154;29;20109;-90
2022/04/13 11:00:45;;;;;;;12.98;6.65;;;15.90;74.80;;;;;;4893039;29;20048;-89
2022/04/13 11:03:12;;;;;;;10.05;6.20;;;15.90;74.60;;;;;;4893240;29;20510;-89
2022/04/13 11:05:40;;;;;;;11.10;6.15;;;15.90;74.50;;;;;;4892929;29;20049;-91
2022/04/13 11:08:20;;;;;;;9.20;5.70;;;15.90;74.40;;;;;;4895268;29;20056;-88
2022/04/13 11:10:48;;;;;;;8.32;5.70;;;15.90;74.20;;;;;;4895956;29;20056;-89
2022/04/13 11:13:16;;;;;;;8.45;5.07;;;15.90;74.20;;;;;;4892831;29;20470;-89
2022/04/13 11:15:50;;;;;;;10.07;5.50;;;15.90;74.00;;;;;;4893091;29;20052;-90
2022/04/13 11:18:20;;;;;;;10.18;5.97;;;15.90;73.90;;;;;;4892656;29;20481;-90
2022/04/13 11:20:59;;;;;;;8.02;5.43;;;15.90;73.80;;;;;;4893038;29;20084;-90
2022/04/13 11:23:56;;;;;;;9.10;5.65;;;15.90;73.80;;;;;;4893648;29;20514;-89
2022/04/13 11:26:35;;;;;;;11.95;5.88;;;15.90;73.70;;;;;;4881577;29;20057;-91
2022/04/13 11:29:14;;;;;;;8.98;5.15;;;15.90;73.60;;;;;;4892970;29;20467;-91
2022/04/13 11:31:59;;;;;;;8.70;5.20;;;15.90;73.60;;;;;;4895003;29;20129;-90
2022/04/13 11:34:46;;;;;;;8.27;5.10;;;15.90;73.60;;;;;;4894695;29;20466;-89
2022/04/13 11:37:14;;;;;;;8.57;4.78;;;15.90;73.50;;;;;;4894435;29;20399;-89
2022/04/13 11:39:51;;;;;;;6.82;4.40;;;15.90;73.50;;;;;;4892738;29;20623;-89
2022/04/13 11:42:27;;;;;;;9.20;4.70;;;15.90;73.50;;;;;;4894292;29;20057;-89
2022/04/13 11:45:05;;;;;;;6.82;4.50;;;15.90;73.50;;;;;;4891871;29;20580;-91
2022/04/13 11:47:59;;;;;;;8.30;4.30;;;15.80;73.50;;;;;;4877839;29;20104;-90
2022/04/13 11:50:33;;;;;;;8.77;4.83;;;15.80;73.40;;;;;;4884846;29;20056;-89
2022/04/13 11:53:06;;;;;;;9.30;4.50;;;15.80;73.40;;;;;;4892723;29;20308;-89
2022/04/13 11:55:37;;;;;;;7.20;4.43;;;15.90;73.30;;;;;;4895295;29;20537;-90
2022/04/13 11:58:09;;;;;;;8.52;4.07;;;15.90;73.30;;;;;;4892311;29;20048;-90
2022/04/13 12:00:41;;;;;;;7.35;3.67;;;15.90;73.30;;;;;;4892312;29;20115;-89
2022/04/13 12:03:11;;;;;;;7.35;3.65;;;15.90;73.30;;;;;;4892347;29;20045;-89
2022/04/13 12:05:42;;;;;;;5.90;3.55;;;15.90;73.30;;;;;;4892987;29;20553;-89
2022/04/13 12:08:15;;;;;;;8.10;4.05;;;15.90;73.30;;;;;;4898322;29;20060;-90
2022/04/13 12:10:47;;;;;;;6.30;3.73;;;15.90;73.30;;;;;;4898387;29;20061;-89
2022/04/13 12:13:14;;;;;;;6.97;4.00;;;15.90;73.20;;;;;;4896247;29;20063;-90
2022/04/13 12:15:53;;;;;;;7.65;3.83;;;16.00;73.20;;;;;;4895893;29;20048;-89
2022/04/13 12:18:24;;;;;;;6.60;3.78;;;16.00;73.20;;;;;;4895434;29;20056;-89
2022/04/13 12:21:05;;;;;;;7.60;3.70;;;16.10;73.20;;;;;;4895482;29;20458;-90
2022/04/13 12:23:35;;;;;;;6.75;3.88;;;16.20;73.20;;;;;;4881314;29;20053;-92
2022/04/13 12:26:02;;;;;;;10.73;4.50;;;16.20;73.30;;;;;;4898652;29;20048;-89
2022/04/13 12:28:29;;;;;;;8.25;4.03;;;16.30;73.30;;;;;;4896696;29;20048;-89
2022/04/13 12:31:06;;;;;;;8.57;3.97;;;16.40;73.20;;;;;;4895083;29;20056;-89
2022/04/13 12:33:34;;;;;;;7.57;3.58;;;16.40;73.10;;;;;;4895559;29;20513;-89
2022/04/13 12:36:04;;;;;;;7.43;3.55;;;16.50;72.90;;;;;;4904117;29;20052;-90
2022/04/13 12:38:46;;;;;;;5.60;3.45;;;16.60;72.70;;;;;;4882817;29;20048;-89
2022/04/13 12:41:16;;;;;;;6.53;3.67;;;16.60;72.50;;;;;;4895648;29;20392;-91
2022/04/13 12:43:57;;;;;;;6.63;3.42;;;16.80;72.30;;;;;;4897659;29;20049;-90
2022/04/13 12:46:26;;;;;;;7.78;2.80;;;16.80;72.10;;;;;;4894829;29;20455;-91
2022/04/13 12:48:55;;;;;;;6.85;3.00;;;16.90;71.90;;;;;;4896696;29;20506;-91
2022/04/13 12:51:23;;;;;;;6.40;3.30;;;16.90;71.80;;;;;;4896749;29;20112;-90
2022/04/13 12:53:54;;;;;;;5.55;3.22;;;17.00;71.60;;;;;;4895514;29;20105;-89
2022/04/13 12:56:30;;;;;;;6.78;3.15;;;17.10;71.50;;;;;;4896622;29;20056;-89